Aviation Digital Data Service (ADDS)

Output produced by TAFs form (1727 UTC 04 May 2016)
found at http://www.aviationweather.gov/adds/tafs/
 
KMRB 041510Z 0415/0512 14007KT P6SM -SHRA BKN035 
     FM041900 09004KT 5SM -SHRA BKN015 
     FM042100 09005KT 3SM -SHRA OVC015 
     FM050000 08004KT P6SM OVC008 
     FM050600 VRB03KT 2SM -SHRA OVC008